createdAt,value
2023-01-03T00:01:31.445Z,3.30
2023-01-03T00:04:00.577Z,4.57
2023-01-03T00:06:30.499Z,3.42
2023-01-03T00:09:00.558Z,4.32
2023-01-03T00:11:49.826Z,2.15
2023-01-03T00:14:19.906Z,2.33
2023-01-03T00:16:52.297Z,3.90
2023-01-03T00:19:21.167Z,2.78
2023-01-03T00:21:49.729Z,2.85
2023-01-03T00:24:18.559Z,2.55
2023-01-03T00:26:48.595Z,3.40
2023-01-03T00:29:17.497Z,3.60
2023-01-03T00:34:33.973Z,3.70
2023-01-03T00:37:02.594Z,3.60
2023-01-03T00:39:30.870Z,3.35
2023-01-03T00:42:00.480Z,4.43
2023-01-03T00:44:29.065Z,2.60
2023-01-03T00:46:57.319Z,2.60
2023-01-03T00:49:26.041Z,3.78
2023-01-03T00:51:54.504Z,3.97
2023-01-03T00:54:23.514Z,6.85
2023-01-03T00:56:52.997Z,4.72
2023-01-03T00:59:23.472Z,2.65
2023-01-03T01:01:54.592Z,5.07
2023-01-03T01:04:25.323Z,3.08
2023-01-03T01:06:56.335Z,4.30
2023-01-03T01:09:27.927Z,6.60
2023-01-03T01:14:29.349Z,3.90
2023-01-03T01:16:59.514Z,4.05
2023-01-03T01:19:30.642Z,6.93
2023-01-03T01:21:59.181Z,5.97
2023-01-03T01:24:28.004Z,3.80
2023-01-03T01:26:56.256Z,4.68
2023-01-03T01:29:26.196Z,3.08
2023-01-03T01:31:54.722Z,3.67
2023-01-03T01:34:23.041Z,4.43
2023-01-03T01:36:51.291Z,2.20
2023-01-03T01:39:21.411Z,3.60
2023-01-03T01:42:10.972Z,3.25
2023-01-03T01:44:49.214Z,3.42
2023-01-03T01:47:25.960Z,2.92
2023-01-03T01:49:59.662Z,1.77
2023-01-03T01:52:29.580Z,2.65
2023-01-03T01:54:58.959Z,1.50
2023-01-03T01:57:30.557Z,1.00
2023-01-03T02:00:01.249Z,1.83
2023-01-03T02:02:29.662Z,1.17
2023-01-03T02:05:04.471Z,1.23
2023-01-03T02:07:34.220Z,1.50
2023-01-03T02:10:02.814Z,2.22
2023-01-03T02:12:58.240Z,1.55
2023-01-03T02:15:56.258Z,1.77
2023-01-03T02:18:39.173Z,2.10
2023-01-03T02:21:50.498Z,2.72
2023-01-03T02:25:04.565Z,2.13
2023-01-03T02:28:12.113Z,2.13
2023-01-03T02:30:45.869Z,1.95
2023-01-03T02:33:24.831Z,0.95
2023-01-03T02:36:02.010Z,1.58
2023-01-03T02:38:40.726Z,1.88
2023-01-03T02:41:16.971Z,0.80
2023-01-03T02:43:52.095Z,0.47
2023-01-03T02:46:28.301Z,0.80
2023-01-03T02:49:00.480Z,1.00
2023-01-03T02:51:32.959Z,1.60
2023-01-03T02:54:03.678Z,1.00
2023-01-03T02:56:36.677Z,2.13
2023-01-03T02:59:10.091Z,0.65
2023-01-03T03:01:46.416Z,0.73
2023-01-03T03:04:15.711Z,0.70
2023-01-03T03:06:52.081Z,0.88
2023-01-03T03:09:20.439Z,1.70
2023-01-03T03:12:08.409Z,0.68
2023-01-03T03:14:40.729Z,2.05
2023-01-03T03:17:15.693Z,1.08
2023-01-03T03:20:06.204Z,1.17
2023-01-03T03:22:57.657Z,1.17
2023-01-03T03:25:30.068Z,1.25
2023-01-03T03:28:19.788Z,0.52
2023-01-03T03:30:52.037Z,1.58
2023-01-03T03:33:24.997Z,0.90
2023-01-03T03:35:58.280Z,1.48
2023-01-03T03:38:31.692Z,0.75
2023-01-03T03:41:24.494Z,2.08
2023-01-03T03:44:18.352Z,0.93
2023-01-03T03:46:55.091Z,0.52
2023-01-03T03:49:40.629Z,1.50
2023-01-03T03:52:14.153Z,1.02
2023-01-03T03:54:45.806Z,0.60
2023-01-03T03:59:51.105Z,0.85
2023-01-03T04:02:21.150Z,0.50
2023-01-03T04:04:55.254Z,1.50
2023-01-03T04:07:23.563Z,3.05
2023-01-03T04:09:51.892Z,0.93
2023-01-03T04:12:20.294Z,0.90
2023-01-03T04:14:48.524Z,0.73
2023-01-03T04:17:16.903Z,1.00
2023-01-03T04:19:45.184Z,1.42
2023-01-03T04:22:14.861Z,1.42
2023-01-03T04:24:43.491Z,1.10
2023-01-03T04:27:11.802Z,1.52
2023-01-03T04:29:40.072Z,0.68
2023-01-03T04:32:08.677Z,1.40
2023-01-03T04:34:37.321Z,4.53
2023-01-03T04:37:05.641Z,2.30
2023-01-03T04:39:35.242Z,1.40
2023-01-03T04:42:23.515Z,0.98
2023-01-03T04:44:50.852Z,0.88
2023-01-03T04:47:19.069Z,1.30
2023-01-03T04:49:47.681Z,1.15
2023-01-03T04:52:16.603Z,0.82
2023-01-03T04:54:46.257Z,0.75
2023-01-03T04:57:14.534Z,1.27
2023-01-03T04:59:42.758Z,1.40
2023-01-03T05:02:11.143Z,1.00
2023-01-03T05:04:39.609Z,2.05
2023-01-03T05:07:08.572Z,0.70
2023-01-03T05:09:36.886Z,1.90
2023-01-03T05:12:07.230Z,2.38
2023-01-03T05:14:37.210Z,1.73
2023-01-03T05:17:05.956Z,1.60
2023-01-03T05:19:34.259Z,2.15
2023-01-03T05:22:20.376Z,1.88
2023-01-03T05:25:05.845Z,1.52
2023-01-03T05:27:35.579Z,1.85
2023-01-03T05:30:03.949Z,1.67
2023-01-03T05:32:32.244Z,1.65
2023-01-03T05:35:00.844Z,1.45
2023-01-03T05:37:29.457Z,1.48
2023-01-03T05:39:57.687Z,1.02
2023-01-03T05:42:25.942Z,2.55
2023-01-03T05:44:55.545Z,0.88
2023-01-03T05:47:23.768Z,2.17
2023-01-03T05:49:52.123Z,1.15
2023-01-03T05:52:20.593Z,1.27
2023-01-03T05:54:48.801Z,1.80
2023-01-03T05:57:17.139Z,1.30
2023-01-03T05:59:45.339Z,1.02
2023-01-03T06:02:15.103Z,1.63
2023-01-03T06:04:43.732Z,1.23
2023-01-03T06:07:12.049Z,2.10
2023-01-03T06:09:40.348Z,0.90
2023-01-03T06:12:08.851Z,1.75
2023-01-03T06:14:37.129Z,2.15
2023-01-03T06:17:22.836Z,2.85
2023-01-03T06:19:52.522Z,1.70
2023-01-03T06:22:20.938Z,1.33
2023-01-03T06:24:49.117Z,2.40
2023-01-03T06:27:17.400Z,1.65
2023-01-03T06:29:45.630Z,2.00
2023-01-03T06:32:13.922Z,2.58
2023-01-03T06:34:42.199Z,1.92
2023-01-03T06:37:11.877Z,1.50
2023-01-03T06:39:40.113Z,1.98
2023-01-03T06:42:25.816Z,1.35
2023-01-03T06:45:08.073Z,2.20
2023-01-03T06:47:54.924Z,2.00
2023-01-03T06:50:41.058Z,1.27
2023-01-03T06:53:15.277Z,2.35
2023-01-03T06:55:47.012Z,2.97
2023-01-03T06:58:18.290Z,2.55
2023-01-03T07:00:48.103Z,2.45
2023-01-03T07:03:16.351Z,1.90
2023-01-03T07:05:44.506Z,2.70
2023-01-03T07:08:14.152Z,2.33
2023-01-03T07:10:42.621Z,2.20
2023-01-03T07:13:28.708Z,3.00
2023-01-03T07:15:56.994Z,2.13
2023-01-03T07:18:26.407Z,2.75
2023-01-03T07:20:55.074Z,2.95
2023-01-03T07:23:24.808Z,3.05
2023-01-03T07:25:56.523Z,2.78
2023-01-03T07:28:24.953Z,3.83
2023-01-03T07:30:53.322Z,3.38
2023-01-03T07:33:21.709Z,2.20
2023-01-03T07:35:49.903Z,3.03
2023-01-03T07:38:18.201Z,2.53
2023-01-03T07:40:47.737Z,2.85
2023-01-03T07:43:32.548Z,2.85
2023-01-03T07:46:00.802Z,2.33
2023-01-03T07:48:29.038Z,3.35
2023-01-03T07:50:59.042Z,6.65
2023-01-03T07:53:27.443Z,4.43
2023-01-03T07:56:07.676Z,4.35
2023-01-03T08:01:07.552Z,2.92
2023-01-03T08:03:36.206Z,3.15
2023-01-03T08:06:07.622Z,4.18
2023-01-03T08:08:36.296Z,3.67
2023-01-03T08:11:23.641Z,5.45
2023-01-03T08:13:52.071Z,4.22
2023-01-03T08:16:20.865Z,3.60
2023-01-03T08:18:49.204Z,5.20
2023-01-03T08:21:18.007Z,2.70
2023-01-03T08:23:49.054Z,8.13
2023-01-03T08:26:19.002Z,2.95
2023-01-03T08:28:47.248Z,2.95
2023-01-03T08:31:19.655Z,3.40
2023-01-03T08:33:51.195Z,3.75
2023-01-03T08:36:20.885Z,3.85
2023-01-03T08:38:52.251Z,3.15
2023-01-03T08:41:24.577Z,3.60
2023-01-03T08:43:54.414Z,2.70
2023-01-03T08:46:23.383Z,4.03
2023-01-03T08:48:51.803Z,2.72
2023-01-03T08:51:20.172Z,2.80
2023-01-03T08:53:48.385Z,3.03
2023-01-03T08:56:16.700Z,2.33
2023-01-03T08:58:46.878Z,3.72
2023-01-03T09:01:15.291Z,3.03
2023-01-03T09:03:43.847Z,2.50
2023-01-03T09:06:12.393Z,5.38
2023-01-03T09:08:40.618Z,3.50
2023-01-03T09:11:10.190Z,3.70
2023-01-03T09:13:39.394Z,2.97
2023-01-03T09:16:12.047Z,3.22
2023-01-03T09:18:41.599Z,3.90
2023-01-03T09:21:10.162Z,3.22
2023-01-03T09:23:38.705Z,3.90
2023-01-03T09:26:08.092Z,5.63
2023-01-03T09:28:36.438Z,9.50
2023-01-03T09:31:05.569Z,6.43
2023-01-03T09:33:35.181Z,4.88
2023-01-03T09:36:03.492Z,5.18
2023-01-03T09:38:31.893Z,4.55
2023-01-03T09:41:03.372Z,5.63
2023-01-03T09:43:41.008Z,3.72
2023-01-03T09:46:18.550Z,4.75
2023-01-03T09:48:49.477Z,10.00
2023-01-03T09:51:38.585Z,27.80
2023-01-03T09:54:28.620Z,17.98
2023-01-03T09:57:14.880Z,11.13
2023-01-03T10:00:00.947Z,9.10
2023-01-03T10:03:11.881Z,8.10
2023-01-03T10:05:53.245Z,6.03
2023-01-03T10:08:39.656Z,4.35
2023-01-03T10:11:11.040Z,4.32
2023-01-03T10:13:58.180Z,4.60
2023-01-03T10:16:42.607Z,4.30
2023-01-03T10:19:37.910Z,4.32
2023-01-03T10:22:12.418Z,4.45
2023-01-03T10:24:46.751Z,5.30
2023-01-03T10:27:18.003Z,4.60
2023-01-03T10:29:47.636Z,4.13
2023-01-03T10:32:38.409Z,3.92
2023-01-03T10:35:22.660Z,3.95
2023-01-03T10:37:54.473Z,4.75
2023-01-03T10:40:34.687Z,3.83
2023-01-03T10:43:10.929Z,3.50
2023-01-03T10:45:56.449Z,4.07
2023-01-03T10:48:25.214Z,4.65
2023-01-03T10:50:54.395Z,3.40
2023-01-03T10:53:24.685Z,3.85
2023-01-03T10:55:55.504Z,4.45
2023-01-03T10:58:32.232Z,3.95
2023-01-03T11:01:22.398Z,5.15
2023-01-03T11:04:14.627Z,3.33
2023-01-03T11:06:59.849Z,3.60
2023-01-03T11:09:34.826Z,3.97
2023-01-03T11:12:06.462Z,4.88
2023-01-03T11:17:05.343Z,3.85
2023-01-03T11:19:34.943Z,4.32
2023-01-03T11:22:12.638Z,2.97
2023-01-03T11:24:54.739Z,4.75
2023-01-03T11:27:34.126Z,4.68
2023-01-03T11:30:26.277Z,5.38
2023-01-03T11:33:16.825Z,3.05
2023-01-03T11:35:54.638Z,7.38
2023-01-03T11:38:46.466Z,4.32
2023-01-03T11:44:09.770Z,4.43
2023-01-03T11:46:53.445Z,6.10
2023-01-03T11:49:34.123Z,5.68
2023-01-03T11:52:19.023Z,3.72
2023-01-03T11:55:15.274Z,4.20
2023-01-03T11:57:53.254Z,12.98
2023-01-03T12:00:30.923Z,6.25
2023-01-03T12:03:21.902Z,4.50
2023-01-03T12:05:52.587Z,5.47
2023-01-03T12:08:45.301Z,3.17
2023-01-03T12:11:29.014Z,3.25
2023-01-03T12:14:05.204Z,3.60
2023-01-03T12:16:41.005Z,3.17
2023-01-03T12:19:20.900Z,5.05
2023-01-03T12:21:53.779Z,2.83
2023-01-03T12:24:32.302Z,2.33
2023-01-03T12:27:05.692Z,2.83
2023-01-03T12:29:50.225Z,1.80
2023-01-03T12:32:23.381Z,2.65
2023-01-03T12:34:57.528Z,2.67
2023-01-03T12:37:30.834Z,2.33
2023-01-03T12:40:02.660Z,3.47
2023-01-03T12:42:37.320Z,3.55
2023-01-03T12:45:31.264Z,2.25
2023-01-03T12:48:13.460Z,2.30
2023-01-03T12:50:46.413Z,2.15
2023-01-03T12:53:19.989Z,2.30
2023-01-03T12:56:01.015Z,1.52
2023-01-03T12:58:41.308Z,2.65
2023-01-03T13:01:17.944Z,2.35
2023-01-03T13:03:52.742Z,3.55
2023-01-03T13:06:26.041Z,2.40
2023-01-03T13:08:59.298Z,2.95
2023-01-03T13:11:31.803Z,3.40
2023-01-03T13:14:07.585Z,2.42
2023-01-03T13:16:56.468Z,4.90
2023-01-03T13:19:57.565Z,2.28
2023-01-03T13:22:52.231Z,2.77
2023-01-03T13:25:44.581Z,1.80
2023-01-03T13:28:35.892Z,3.40
2023-01-03T13:31:35.296Z,2.95
2023-01-03T13:34:43.460Z,1.80
2023-01-03T13:37:18.126Z,1.92
2023-01-03T13:39:58.658Z,3.15
2023-01-03T13:42:30.758Z,2.22
2023-01-03T13:45:32.457Z,2.28
2023-01-03T13:48:15.770Z,1.88
2023-01-03T13:51:05.579Z,1.38
2023-01-03T13:53:39.140Z,1.58
2023-01-03T13:56:25.879Z,1.52
2023-01-03T13:58:58.773Z,4.68
2023-01-03T14:01:42.066Z,2.67
2023-01-03T14:04:34.397Z,3.22
2023-01-03T14:07:39.035Z,4.45
2023-01-03T14:10:19.822Z,2.63
2023-01-03T14:13:17.046Z,3.05
2023-01-03T14:15:47.350Z,3.17
2023-01-03T14:18:22.783Z,2.90
2023-01-03T14:20:53.369Z,3.45
2023-01-03T14:26:17.603Z,6.30
2023-01-03T14:28:49.512Z,4.32
2023-01-03T14:31:21.626Z,4.80
2023-01-03T14:33:55.412Z,5.00
2023-01-03T14:36:23.809Z,4.20
2023-01-03T14:38:55.700Z,3.65
2023-01-03T14:41:30.483Z,2.90
2023-01-03T14:44:04.152Z,2.45
2023-01-03T14:46:33.326Z,6.25
2023-01-03T14:49:04.190Z,3.47
2023-01-03T14:51:34.710Z,2.63
2023-01-03T14:54:05.391Z,3.58
2023-01-03T14:56:34.398Z,2.50
2023-01-03T14:59:03.949Z,3.60
2023-01-03T15:01:32.460Z,2.90
2023-01-03T15:04:01.828Z,1.52
2023-01-03T15:06:31.863Z,2.28
2023-01-03T15:09:02.702Z,2.60
2023-01-03T15:11:55.828Z,3.40
2023-01-03T15:14:26.271Z,2.63
2023-01-03T15:17:04.179Z,1.95
2023-01-03T15:19:34.395Z,2.47
2023-01-03T15:22:09.760Z,2.03
2023-01-03T15:24:43.649Z,2.33
2023-01-03T15:27:41.901Z,2.88
2023-01-03T15:30:26.575Z,2.45
2023-01-03T15:32:58.332Z,2.97
2023-01-03T15:35:33.666Z,2.80
2023-01-03T15:38:03.426Z,1.90
2023-01-03T15:40:32.404Z,4.38
2023-01-03T15:43:24.471Z,3.30
2023-01-03T15:46:02.657Z,4.82
2023-01-03T15:48:35.210Z,3.15
2023-01-03T15:51:05.035Z,2.08
2023-01-03T15:53:42.778Z,1.40
2023-01-03T15:56:18.795Z,2.95
2023-01-03T15:58:49.428Z,3.20
2023-01-03T16:01:19.539Z,3.58
2023-01-03T16:03:49.614Z,1.77
2023-01-03T16:06:17.981Z,3.05
2023-01-03T16:08:46.603Z,3.17
2023-01-03T16:11:19.770Z,3.17
2023-01-03T16:13:54.171Z,2.45
2023-01-03T16:16:26.857Z,3.15
2023-01-03T16:18:55.911Z,5.78
2023-01-03T16:21:24.797Z,3.30
2023-01-03T16:23:53.286Z,2.33
2023-01-03T16:26:21.672Z,3.60
2023-01-03T16:28:51.375Z,2.35
2023-01-03T16:31:27.847Z,2.42
2023-01-03T16:33:56.942Z,3.35
2023-01-03T16:36:32.423Z,3.75
2023-01-03T16:39:01.652Z,3.65
2023-01-03T16:41:29.907Z,2.25
2023-01-03T16:43:59.761Z,2.35
2023-01-03T16:46:29.933Z,2.85
2023-01-03T16:49:00.238Z,1.83
2023-01-03T16:51:31.449Z,2.90
2023-01-03T16:54:00.774Z,5.85
2023-01-03T16:56:29.252Z,2.15
2023-01-03T16:58:58.918Z,3.35
2023-01-03T17:01:27.225Z,2.67
2023-01-03T17:03:55.902Z,2.15
2023-01-03T17:06:37.084Z,3.33
2023-01-03T17:09:11.613Z,2.15
2023-01-03T17:11:40.234Z,4.30
2023-01-03T17:14:17.720Z,2.92
2023-01-03T17:16:46.690Z,2.67
2023-01-03T17:20:02.906Z,3.58
2023-01-03T17:22:15.545Z,2.35
2023-01-03T17:24:44.135Z,4.68
2023-01-03T17:27:17.744Z,2.78
2023-01-03T17:29:49.881Z,4.85
2023-01-03T17:32:20.110Z,4.90
2023-01-03T17:34:48.945Z,3.92
2023-01-03T17:37:19.791Z,5.47
2023-01-03T17:39:53.883Z,4.47
2023-01-03T17:42:23.031Z,3.53
2023-01-03T17:45:11.208Z,5.10
2023-01-03T17:47:59.381Z,3.92
2023-01-03T17:50:28.889Z,5.10
2023-01-03T17:52:58.682Z,5.03
2023-01-03T17:55:29.447Z,5.35
2023-01-03T17:58:01.367Z,4.97
2023-01-03T18:00:31.902Z,7.18
2023-01-03T18:03:01.455Z,6.18
2023-01-03T18:05:30.538Z,4.80
2023-01-03T18:08:01.592Z,5.95
2023-01-03T18:10:41.532Z,3.92
2023-01-03T18:13:22.215Z,4.32
2023-01-03T18:15:52.442Z,5.30
2023-01-03T18:18:21.435Z,3.88
2023-01-03T18:20:50.128Z,4.80
2023-01-03T18:23:21.768Z,5.30
2023-01-03T18:25:51.024Z,5.65
2023-01-03T18:28:23.909Z,5.38
2023-01-03T18:30:53.801Z,5.47
2023-01-03T18:33:22.927Z,5.45
2023-01-03T18:35:52.409Z,4.43
2023-01-03T18:38:27.341Z,4.68
2023-01-03T18:41:04.013Z,5.70
2023-01-03T18:43:33.791Z,4.97
2023-01-03T18:46:04.810Z,5.05
2023-01-03T18:48:33.551Z,7.00
2023-01-03T18:51:01.977Z,6.03
2023-01-03T18:53:33.099Z,5.18
2023-01-03T18:56:02.939Z,6.70
2023-01-03T18:58:35.280Z,5.75
2023-01-03T19:01:06.685Z,5.85
2023-01-03T19:06:12.978Z,5.55
2023-01-03T19:08:41.611Z,6.07
2023-01-03T19:11:15.941Z,5.45
2023-01-03T19:13:51.334Z,7.18
2023-01-03T19:16:23.057Z,6.05
2023-01-03T19:18:52.367Z,6.82
2023-01-03T19:21:22.799Z,8.43
2023-01-03T19:24:02.099Z,7.03
2023-01-03T19:26:34.058Z,8.35
2023-01-03T19:29:05.866Z,7.57
2023-01-03T19:31:41.970Z,7.43
2023-01-03T19:34:18.069Z,7.85
2023-01-03T19:36:46.939Z,11.85
2023-01-03T19:39:15.900Z,7.80
2023-01-03T19:42:04.518Z,8.35
2023-01-03T19:44:33.567Z,10.45
2023-01-03T19:47:03.764Z,8.10
2023-01-03T19:49:32.168Z,7.82
2023-01-03T19:52:00.423Z,8.52
2023-01-03T19:54:28.762Z,8.30
2023-01-03T19:56:59.556Z,9.02
2023-01-03T19:59:29.739Z,8.48
2023-01-03T20:02:24.024Z,8.48
2023-01-03T20:04:48.449Z,8.05
2023-01-03T20:07:16.836Z,6.72
2023-01-03T20:09:45.095Z,8.77
2023-01-03T20:12:15.861Z,7.40
2023-01-03T20:14:47.584Z,7.83
2023-01-03T20:17:21.909Z,8.00
2023-01-03T20:19:52.339Z,8.10
2023-01-03T20:23:03.681Z,7.93
2023-01-03T20:25:26.223Z,9.57
2023-01-03T20:27:55.398Z,7.50
2023-01-03T20:30:26.316Z,8.73
2023-01-03T20:32:54.575Z,9.02
2023-01-03T20:38:16.918Z,7.85
2023-01-03T20:40:45.267Z,8.60
2023-01-03T20:43:17.281Z,8.98
2023-01-03T20:45:46.050Z,9.77
2023-01-03T20:48:22.717Z,8.75
2023-01-03T20:50:54.647Z,8.82
2023-01-03T20:53:23.950Z,9.98
2023-01-03T20:55:53.012Z,8.27
2023-01-03T20:58:25.225Z,10.75
2023-01-03T21:00:59.892Z,8.88
2023-01-03T21:03:33.189Z,9.35
2023-01-03T21:06:03.530Z,10.20
2023-01-03T21:08:49.461Z,8.32
2023-01-03T21:11:17.762Z,8.85
2023-01-03T21:13:46.093Z,10.38
2023-01-03T21:16:33.546Z,8.38
2023-01-03T21:19:12.662Z,9.60
2023-01-03T21:21:43.434Z,9.90
2023-01-03T21:24:12.290Z,8.97
2023-01-03T21:26:41.032Z,8.60
2023-01-03T21:29:09.642Z,10.23
2023-01-03T21:31:38.649Z,8.82
2023-01-03T21:34:08.790Z,9.75
2023-01-03T21:36:37.591Z,9.13
2023-01-03T21:39:07.275Z,8.98
2023-01-03T21:41:56.509Z,9.98
2023-01-03T21:44:25.056Z,10.57
2023-01-03T21:46:53.386Z,9.50
2023-01-03T21:49:21.914Z,9.48
2023-01-03T21:51:50.131Z,8.57
2023-01-03T21:54:19.784Z,9.40
2023-01-03T21:56:48.065Z,9.50
2023-01-03T21:59:17.687Z,10.27
2023-01-03T22:02:04.530Z,8.38
2023-01-03T22:04:33.183Z,10.43
2023-01-03T22:07:02.087Z,11.88
2023-01-03T22:09:50.628Z,9.80
2023-01-03T22:12:20.288Z,8.48
2023-01-03T22:14:48.534Z,8.63
2023-01-03T22:17:16.978Z,9.52
2023-01-03T22:19:45.244Z,8.55
2023-01-03T22:22:13.872Z,8.68
2023-01-03T22:24:43.688Z,7.70
2023-01-03T22:27:11.927Z,9.93
2023-01-03T22:29:40.175Z,9.27
2023-01-03T22:32:10.380Z,8.55
2023-01-03T22:34:39.485Z,9.05
2023-01-03T22:37:07.771Z,9.25
2023-01-03T22:39:36.062Z,8.52
2023-01-03T22:42:05.895Z,10.27
2023-01-03T22:44:34.171Z,9.70
2023-01-03T22:47:02.838Z,8.80
2023-01-03T22:49:31.422Z,8.20
2023-01-03T22:51:59.644Z,8.52
2023-01-03T22:54:27.897Z,8.93
2023-01-03T22:56:56.981Z,8.75
2023-01-03T22:59:26.637Z,9.25
2023-01-03T23:01:55.048Z,9.25
2023-01-03T23:04:24.364Z,7.80
2023-01-03T23:06:52.983Z,9.55
2023-01-03T23:09:21.716Z,8.75
2023-01-03T23:12:07.750Z,9.20
2023-01-03T23:14:37.571Z,9.65
2023-01-03T23:17:19.725Z,10.25
2023-01-03T23:19:48.107Z,10.27
2023-01-03T23:22:16.389Z,9.15
2023-01-03T23:24:44.666Z,9.35
2023-01-03T23:27:12.906Z,9.60
2023-01-03T23:29:42.589Z,10.57
2023-01-03T23:32:10.896Z,8.45
2023-01-03T23:34:39.186Z,8.52
2023-01-03T23:37:07.519Z,8.55
2023-01-03T23:39:35.815Z,10.15
2023-01-03T23:42:04.070Z,8.93
2023-01-03T23:44:33.333Z,10.07
2023-01-03T23:47:07.656Z,9.48
2023-01-03T23:49:39.501Z,8.25
2023-01-03T23:52:07.822Z,8.55
2023-01-03T23:54:36.352Z,7.88
2023-01-03T23:57:04.981Z,9.35
2023-01-03T23:59:33.379Z,8.63
